CheckWX is a tool to help pilots better visualize weather data.  It is not intended as a substitute for an official pre-flight weather briefing.

19:10:09 UTC

KCRS METAR
C David Campbell Field-Corsicana Municipal Airport
Corsicana, Texas, USA
Current

1 hour ago

KCRS 221753Z AUTO 02006KT 5SM BR OVC003 09/08 A3002 RMK AO2 SLP164 60000 T00890083 10089 20078 50007
Observed
Feb-22 @ 17:53 UTC
Wind
  • 020° at 6 KTS
Visibility
5 SM
Flight Rules
LIFR
Conditions
Mist
Cloud Levels
  • Overcast at 300' AGL
Temperature
C / 48°F
Dewpoint
C / 46°F
Humidity
94%
Altimeter
30.02" Hg
Pressure
1016.4 hPa
Previous

2 hours ago

KCRS 221722Z AUTO 36009KT 3SM BR OVC002 09/08 A3003 RMK AO2 T00890083
Observed
Feb-22 @ 17:22 UTC
Wind
  • 360° at 9 KTS
Visibility
3 SM
Flight Rules
LIFR
Conditions
Mist
Cloud Levels
  • Overcast at 200' AGL
Temperature
C / 48°F
Dewpoint
C / 46°F
Humidity
94%
Altimeter
30.03" Hg
Pressure
1016.92 hPa
Previous

2 hours ago

KCRS 221719Z AUTO 36007KT 1 3/4SM BR OVC002 09/08 A3003 RMK AO2 T00890083
Observed
Feb-22 @ 17:19 UTC
Wind
  • 360° at 7 KTS
Visibility
1 3/4 SM
Flight Rules
LIFR
Conditions
Mist
Cloud Levels
  • Overcast at 200' AGL
Temperature
C / 48°F
Dewpoint
C / 46°F
Humidity
94%
Altimeter
30.03" Hg
Pressure
1016.92 hPa